sensor_id;sensor_type;location;lat;lon;timestamp;temperature;humidity
26051;DHT22;13825;53.496;10.020;2022-10-31T00:01:41;9.50;99.90
26051;DHT22;13825;53.496;10.020;2022-10-31T00:04:12;9.50;99.90
26051;DHT22;13825;53.496;10.020;2022-10-31T00:06:39;9.50;99.90
26051;DHT22;13825;53.496;10.020;2022-10-31T00:09:11;9.40;99.90
26051;DHT22;13825;53.496;10.020;2022-10-31T00:11:38;9.40;99.90
26051;DHT22;13825;53.496;10.020;2022-10-31T00:14:05;9.40;99.90
26051;DHT22;13825;53.496;10.020;2022-10-31T00:16:33;9.40;99.90
26051;DHT22;13825;53.496;10.020;2022-10-31T00:19:02;9.40;99.90
26051;DHT22;13825;53.496;10.020;2022-10-31T00:21:30;9.40;99.90
26051;DHT22;13825;53.496;10.020;2022-10-31T00:24:03;9.40;99.90
26051;DHT22;13825;53.496;10.020;2022-10-31T00:26:33;9.40;99.90
26051;DHT22;13825;53.496;10.020;2022-10-31T00:29:00;9.30;99.90
26051;DHT22;13825;53.496;10.020;2022-10-31T00:31:27;9.30;99.90
26051;DHT22;13825;53.496;10.020;2022-10-31T00:33:54;9.40;99.90
26051;DHT22;13825;53.496;10.020;2022-10-31T00:36:28;9.30;99.90
26051;DHT22;13825;53.496;10.020;2022-10-31T00:38:55;9.30;99.90
26051;DHT22;13825;53.496;10.020;2022-10-31T00:41:27;9.30;99.90
26051;DHT22;13825;53.496;10.020;2022-10-31T00:43:56;9.30;99.90
26051;DHT22;13825;53.496;10.020;2022-10-31T00:46:24;9.40;99.90
26051;DHT22;13825;53.496;10.020;2022-10-31T00:48:59;9.40;99.90
26051;DHT22;13825;53.496;10.020;2022-10-31T00:51:26;9.30;99.90
26051;DHT22;13825;53.496;10.020;2022-10-31T00:53:52;9.30;99.90
26051;DHT22;13825;53.496;10.020;2022-10-31T00:56:19;9.30;99.90
26051;DHT22;13825;53.496;10.020;2022-10-31T00:58:49;9.30;99.90
26051;DHT22;13825;53.496;10.020;2022-10-31T01:01:18;9.30;99.90
26051;DHT22;13825;53.496;10.020;2022-10-31T01:03:45;9.20;99.90
26051;DHT22;13825;53.496;10.020;2022-10-31T01:06:19;9.20;99.90
26051;DHT22;13825;53.496;10.020;2022-10-31T01:08:53;9.30;99.90
26051;DHT22;13825;53.496;10.020;2022-10-31T01:11:22;9.30;99.90
26051;DHT22;13825;53.496;10.020;2022-10-31T01:13:52;9.30;99.90
26051;DHT22;13825;53.496;10.020;2022-10-31T01:16:30;9.30;99.90
26051;DHT22;13825;53.496;10.020;2022-10-31T01:18:57;9.40;99.90
26051;DHT22;13825;53.496;10.020;2022-10-31T01:21:26;9.50;99.90
26051;DHT22;13825;53.496;10.020;2022-10-31T01:23:55;9.50;99.90
26051;DHT22;13825;53.496;10.020;2022-10-31T01:26:25;9.60;99.90
26051;DHT22;13825;53.496;10.020;2022-10-31T01:29:00;10.00;99.90
26051;DHT22;13825;53.496;10.020;2022-10-31T01:31:31;10.40;99.90
26051;DHT22;13825;53.496;10.020;2022-10-31T01:33:59;10.90;99.90
26051;DHT22;13825;53.496;10.020;2022-10-31T01:36:28;11.40;99.90
26051;DHT22;13825;53.496;10.020;2022-10-31T01:39:00;11.70;99.90
26051;DHT22;13825;53.496;10.020;2022-10-31T01:41:29;12.20;99.90
26051;DHT22;13825;53.496;10.020;2022-10-31T01:44:01;12.50;99.90
26051;DHT22;13825;53.496;10.020;2022-10-31T01:46:46;12.50;99.90
26051;DHT22;13825;53.496;10.020;2022-10-31T01:49:17;12.70;99.90
26051;DHT22;13825;53.496;10.020;2022-10-31T01:51:47;12.70;99.90
26051;DHT22;13825;53.496;10.020;2022-10-31T01:54:20;12.80;99.90
26051;DHT22;13825;53.496;10.020;2022-10-31T01:56:55;12.80;99.90
26051;DHT22;13825;53.496;10.020;2022-10-31T01:59:27;12.80;99.90
26051;DHT22;13825;53.496;10.020;2022-10-31T02:01:58;12.90;99.90
26051;DHT22;13825;53.496;10.020;2022-10-31T02:04:27;12.90;99.90
26051;DHT22;13825;53.496;10.020;2022-10-31T02:06:57;12.90;99.90
26051;DHT22;13825;53.496;10.020;2022-10-31T02:09:26;12.90;99.90
26051;DHT22;13825;53.496;10.020;2022-10-31T02:11:58;12.90;99.90
26051;DHT22;13825;53.496;10.020;2022-10-31T02:14:30;13.00;99.90
26051;DHT22;13825;53.496;10.020;2022-10-31T02:16:58;13.00;99.90
26051;DHT22;13825;53.496;10.020;2022-10-31T02:19:34;13.00;99.90
26051;DHT22;13825;53.496;10.020;2022-10-31T02:22:12;12.90;99.90
26051;DHT22;13825;53.496;10.020;2022-10-31T02:24:56;12.90;99.90
26051;DHT22;13825;53.496;10.020;2022-10-31T02:27:57;12.80;99.90
26051;DHT22;13825;53.496;10.020;2022-10-31T02:30:34;12.80;99.90
26051;DHT22;13825;53.496;10.020;2022-10-31T02:33:18;12.80;99.90
26051;DHT22;13825;53.496;10.020;2022-10-31T02:36:01;12.70;99.90
26051;DHT22;13825;53.496;10.020;2022-10-31T02:38:42;12.70;99.90
26051;DHT22;13825;53.496;10.020;2022-10-31T02:41:19;12.70;99.90
26051;DHT22;13825;53.496;10.020;2022-10-31T02:43:56;12.80;99.90
26051;DHT22;13825;53.496;10.020;2022-10-31T02:46:34;12.80;99.90
26051;DHT22;13825;53.496;10.020;2022-10-31T02:49:09;12.80;99.90
26051;DHT22;13825;53.496;10.020;2022-10-31T02:51:39;12.80;99.90
26051;DHT22;13825;53.496;10.020;2022-10-31T02:54:19;12.80;99.90
26051;DHT22;13825;53.496;10.020;2022-10-31T02:56:54;12.80;99.90
26051;DHT22;13825;53.496;10.020;2022-10-31T02:59:23;12.70;99.90
26051;DHT22;13825;53.496;10.020;2022-10-31T03:02:06;12.70;99.90
26051;DHT22;13825;53.496;10.020;2022-10-31T03:07:46;12.70;99.90
26051;DHT22;13825;53.496;10.020;2022-10-31T03:10:19;12.70;99.90
26051;DHT22;13825;53.496;10.020;2022-10-31T03:12:57;12.70;99.90
26051;DHT22;13825;53.496;10.020;2022-10-31T03:15:28;12.60;99.90
26051;DHT22;13825;53.496;10.020;2022-10-31T03:17:59;12.60;99.90
26051;DHT22;13825;53.496;10.020;2022-10-31T03:20:33;12.50;99.90
26051;DHT22;13825;53.496;10.020;2022-10-31T03:23:09;12.50;99.90
26051;DHT22;13825;53.496;10.020;2022-10-31T03:25:39;12.50;99.90
26051;DHT22;13825;53.496;10.020;2022-10-31T03:28:09;12.50;99.90
26051;DHT22;13825;53.496;10.020;2022-10-31T03:30:39;12.50;99.90
26051;DHT22;13825;53.496;10.020;2022-10-31T03:33:10;12.50;99.90
26051;DHT22;13825;53.496;10.020;2022-10-31T03:35:42;12.50;99.90
26051;DHT22;13825;53.496;10.020;2022-10-31T03:38:11;12.50;99.90
26051;DHT22;13825;53.496;10.020;2022-10-31T03:40:41;12.40;99.90
26051;DHT22;13825;53.496;10.020;2022-10-31T03:43:14;12.50;99.90
26051;DHT22;13825;53.496;10.020;2022-10-31T03:45:45;12.50;99.90
26051;DHT22;13825;53.496;10.020;2022-10-31T03:48:13;12.40;99.90
26051;DHT22;13825;53.496;10.020;2022-10-31T03:50:46;12.50;99.90
26051;DHT22;13825;53.496;10.020;2022-10-31T03:53:18;12.50;99.90
26051;DHT22;13825;53.496;10.020;2022-10-31T03:55:50;12.50;99.90
26051;DHT22;13825;53.496;10.020;2022-10-31T03:58:21;12.40;99.90
26051;DHT22;13825;53.496;10.020;2022-10-31T04:00:55;12.40;99.90
26051;DHT22;13825;53.496;10.020;2022-10-31T04:03:26;12.40;99.90
26051;DHT22;13825;53.496;10.020;2022-10-31T04:05:59;12.40;99.90
26051;DHT22;13825;53.496;10.020;2022-10-31T04:08:40;12.40;99.90
26051;DHT22;13825;53.496;10.020;2022-10-31T04:11:09;12.40;99.90
26051;DHT22;13825;53.496;10.020;2022-10-31T04:13:42;12.40;99.90
26051;DHT22;13825;53.496;10.020;2022-10-31T04:16:21;12.40;99.90
26051;DHT22;13825;53.496;10.020;2022-10-31T04:18:55;12.40;99.90
26051;DHT22;13825;53.496;10.020;2022-10-31T04:21:38;12.40;99.90
26051;DHT22;13825;53.496;10.020;2022-10-31T04:24:06;12.40;99.90
26051;DHT22;13825;53.496;10.020;2022-10-31T04:26:36;12.40;99.90
26051;DHT22;13825;53.496;10.020;2022-10-31T04:29:06;12.50;99.90
26051;DHT22;13825;53.496;10.020;2022-10-31T04:31:38;12.40;99.90
26051;DHT22;13825;53.496;10.020;2022-10-31T04:34:23;12.50;99.90
26051;DHT22;13825;53.496;10.020;2022-10-31T04:36:57;12.50;99.90
26051;DHT22;13825;53.496;10.020;2022-10-31T04:39:25;12.50;99.90
26051;DHT22;13825;53.496;10.020;2022-10-31T04:42:04;12.50;99.90
26051;DHT22;13825;53.496;10.020;2022-10-31T04:44:42;12.50;99.90
26051;DHT22;13825;53.496;10.020;2022-10-31T04:47:15;12.50;99.90
26051;DHT22;13825;53.496;10.020;2022-10-31T04:49:46;12.50;99.90
26051;DHT22;13825;53.496;10.020;2022-10-31T04:52:27;12.40;99.90
26051;DHT22;13825;53.496;10.020;2022-10-31T04:54:54;12.50;99.90
26051;DHT22;13825;53.496;10.020;2022-10-31T04:57:21;12.40;99.90
26051;DHT22;13825;53.496;10.020;2022-10-31T04:59:48;12.50;99.90
26051;DHT22;13825;53.496;10.020;2022-10-31T05:02:23;12.50;99.90
26051;DHT22;13825;53.496;10.020;2022-10-31T05:04:50;12.50;99.90
26051;DHT22;13825;53.496;10.020;2022-10-31T05:07:33;12.50;99.90
26051;DHT22;13825;53.496;10.020;2022-10-31T05:10:04;12.60;99.90
26051;DHT22;13825;53.496;10.020;2022-10-31T05:12:32;12.40;99.90
26051;DHT22;13825;53.496;10.020;2022-10-31T05:15:01;12.40;99.90
26051;DHT22;13825;53.496;10.020;2022-10-31T05:17:41;12.40;99.90
26051;DHT22;13825;53.496;10.020;2022-10-31T05:20:10;12.40;99.90
26051;DHT22;13825;53.496;10.020;2022-10-31T05:22:45;12.50;99.90
26051;DHT22;13825;53.496;10.020;2022-10-31T05:25:22;12.40;99.90
26051;DHT22;13825;53.496;10.020;2022-10-31T05:28:12;12.40;99.90
26051;DHT22;13825;53.496;10.020;2022-10-31T05:31:09;12.40;99.90
26051;DHT22;13825;53.496;10.020;2022-10-31T05:33:38;12.40;99.90
26051;DHT22;13825;53.496;10.020;2022-10-31T05:36:11;12.40;99.90
26051;DHT22;13825;53.496;10.020;2022-10-31T05:38:46;12.40;99.90
26051;DHT22;13825;53.496;10.020;2022-10-31T05:41:15;12.40;99.90
26051;DHT22;13825;53.496;10.020;2022-10-31T05:43:45;12.40;99.90
26051;DHT22;13825;53.496;10.020;2022-10-31T05:46:18;12.50;99.90
26051;DHT22;13825;53.496;10.020;2022-10-31T05:48:52;12.30;99.90
26051;DHT22;13825;53.496;10.020;2022-10-31T05:51:38;12.40;99.90
26051;DHT22;13825;53.496;10.020;2022-10-31T05:54:06;12.40;99.90
26051;DHT22;13825;53.496;10.020;2022-10-31T05:56:41;12.40;99.90
26051;DHT22;13825;53.496;10.020;2022-10-31T05:59:12;12.40;99.90
26051;DHT22;13825;53.496;10.020;2022-10-31T06:01:39;12.40;99.90
26051;DHT22;13825;53.496;10.020;2022-10-31T06:04:07;12.40;99.90
26051;DHT22;13825;53.496;10.020;2022-10-31T06:06:35;12.40;99.90
26051;DHT22;13825;53.496;10.020;2022-10-31T06:09:02;12.40;99.90
26051;DHT22;13825;53.496;10.020;2022-10-31T06:11:29;12.40;99.90
26051;DHT22;13825;53.496;10.020;2022-10-31T06:13:58;12.40;99.90
26051;DHT22;13825;53.496;10.020;2022-10-31T06:16:28;12.40;99.90
26051;DHT22;13825;53.496;10.020;2022-10-31T06:18:57;12.40;99.90
26051;DHT22;13825;53.496;10.020;2022-10-31T06:21:24;12.40;99.90
26051;DHT22;13825;53.496;10.020;2022-10-31T06:23:51;12.40;99.90
26051;DHT22;13825;53.496;10.020;2022-10-31T06:26:32;12.40;99.90
26051;DHT22;13825;53.496;10.020;2022-10-31T06:29:17;12.40;99.90
26051;DHT22;13825;53.496;10.020;2022-10-31T06:31:44;12.40;99.90
26051;DHT22;13825;53.496;10.020;2022-10-31T06:34:18;12.30;99.90
26051;DHT22;13825;53.496;10.020;2022-10-31T06:36:45;12.40;99.90
26051;DHT22;13825;53.496;10.020;2022-10-31T06:39:16;12.40;99.90
26051;DHT22;13825;53.496;10.020;2022-10-31T06:41:43;12.40;99.90
26051;DHT22;13825;53.496;10.020;2022-10-31T06:44:09;12.40;99.90
26051;DHT22;13825;53.496;10.020;2022-10-31T06:46:41;12.40;99.90
26051;DHT22;13825;53.496;10.020;2022-10-31T06:49:09;12.40;99.90
26051;DHT22;13825;53.496;10.020;2022-10-31T06:51:39;12.40;99.90
26051;DHT22;13825;53.496;10.020;2022-10-31T06:54:07;12.30;99.90
26051;DHT22;13825;53.496;10.020;2022-10-31T06:56:34;12.40;99.90
26051;DHT22;13825;53.496;10.020;2022-10-31T06:59:07;12.30;99.90
26051;DHT22;13825;53.496;10.020;2022-10-31T07:01:39;12.40;99.90
26051;DHT22;13825;53.496;10.020;2022-10-31T07:04:08;12.30;99.90
26051;DHT22;13825;53.496;10.020;2022-10-31T07:06:36;12.40;99.90
26051;DHT22;13825;53.496;10.020;2022-10-31T07:09:08;12.40;99.90
26051;DHT22;13825;53.496;10.020;2022-10-31T07:11:36;12.40;99.90
26051;DHT22;13825;53.496;10.020;2022-10-31T07:14:03;12.50;99.90
26051;DHT22;13825;53.496;10.020;2022-10-31T07:16:32;12.40;99.90
26051;DHT22;13825;53.496;10.020;2022-10-31T07:19:04;12.40;99.90
26051;DHT22;13825;53.496;10.020;2022-10-31T07:21:33;12.40;99.90
26051;DHT22;13825;53.496;10.020;2022-10-31T07:24:01;12.50;99.90
26051;DHT22;13825;53.496;10.020;2022-10-31T07:26:35;12.50;99.90
26051;DHT22;13825;53.496;10.020;2022-10-31T07:29:17;12.50;99.90
26051;DHT22;13825;53.496;10.020;2022-10-31T07:31:49;12.50;99.90
26051;DHT22;13825;53.496;10.020;2022-10-31T07:34:28;12.50;99.90
26051;DHT22;13825;53.496;10.020;2022-10-31T07:39:49;12.50;99.90
26051;DHT22;13825;53.496;10.020;2022-10-31T07:42:17;12.50;99.90
26051;DHT22;13825;53.496;10.020;2022-10-31T07:44:44;12.50;99.90
26051;DHT22;13825;53.496;10.020;2022-10-31T07:47:12;12.50;99.90
26051;DHT22;13825;53.496;10.020;2022-10-31T07:49:46;12.50;99.90
26051;DHT22;13825;53.496;10.020;2022-10-31T07:52:33;12.50;99.90
26051;DHT22;13825;53.496;10.020;2022-10-31T07:55:14;12.50;99.90
26051;DHT22;13825;53.496;10.020;2022-10-31T07:58:13;12.50;99.90
26051;DHT22;13825;53.496;10.020;2022-10-31T08:00:46;12.40;99.90
26051;DHT22;13825;53.496;10.020;2022-10-31T08:03:34;12.50;99.90
26051;DHT22;13825;53.496;10.020;2022-10-31T08:06:16;12.50;99.90
26051;DHT22;13825;53.496;10.020;2022-10-31T08:08:48;12.60;99.90
26051;DHT22;13825;53.496;10.020;2022-10-31T08:11:30;12.70;99.90
26051;DHT22;13825;53.496;10.020;2022-10-31T08:14:06;12.70;99.90
26051;DHT22;13825;53.496;10.020;2022-10-31T08:16:34;12.70;99.90
26051;DHT22;13825;53.496;10.020;2022-10-31T08:19:03;12.70;99.90
26051;DHT22;13825;53.496;10.020;2022-10-31T08:21:40;12.60;99.90
26051;DHT22;13825;53.496;10.020;2022-10-31T08:24:17;12.50;99.90
26051;DHT22;13825;53.496;10.020;2022-10-31T08:26:48;12.60;99.90
26051;DHT22;13825;53.496;10.020;2022-10-31T08:29:30;12.70;99.90
26051;DHT22;13825;53.496;10.020;2022-10-31T08:31:59;12.70;99.90
26051;DHT22;13825;53.496;10.020;2022-10-31T08:34:28;12.80;99.90
26051;DHT22;13825;53.496;10.020;2022-10-31T08:36:59;12.80;99.90
26051;DHT22;13825;53.496;10.020;2022-10-31T08:39:36;12.90;99.90
26051;DHT22;13825;53.496;10.020;2022-10-31T08:42:05;13.00;99.90
26051;DHT22;13825;53.496;10.020;2022-10-31T08:44:35;13.00;99.90
26051;DHT22;13825;53.496;10.020;2022-10-31T08:47:02;13.00;99.90
26051;DHT22;13825;53.496;10.020;2022-10-31T08:49:31;13.00;99.90
26051;DHT22;13825;53.496;10.020;2022-10-31T08:52:03;13.00;99.90
26051;DHT22;13825;53.496;10.020;2022-10-31T08:54:30;13.00;99.90
26051;DHT22;13825;53.496;10.020;2022-10-31T08:56:59;13.00;99.90
26051;DHT22;13825;53.496;10.020;2022-10-31T08:59:26;13.00;99.90
26051;DHT22;13825;53.496;10.020;2022-10-31T09:01:57;13.00;99.90
26051;DHT22;13825;53.496;10.020;2022-10-31T09:04:25;13.00;99.90
26051;DHT22;13825;53.496;10.020;2022-10-31T09:06:54;13.00;99.90
26051;DHT22;13825;53.496;10.020;2022-10-31T09:09:38;13.00;99.90
26051;DHT22;13825;53.496;10.020;2022-10-31T09:12:17;13.10;99.90
26051;DHT22;13825;53.496;10.020;2022-10-31T09:18:20;13.10;99.90
26051;DHT22;13825;53.496;10.020;2022-10-31T09:20:58;13.10;99.90
26051;DHT22;13825;53.496;10.020;2022-10-31T09:23:44;13.00;99.90
26051;DHT22;13825;53.496;10.020;2022-10-31T09:30:02;13.20;99.90
26051;DHT22;13825;53.496;10.020;2022-10-31T09:33:09;13.20;99.90
26051;DHT22;13825;53.496;10.020;2022-10-31T09:35:42;13.30;99.90
26051;DHT22;13825;53.496;10.020;2022-10-31T09:41:26;13.40;99.90
26051;DHT22;13825;53.496;10.020;2022-10-31T09:44:39;13.30;99.90
26051;DHT22;13825;53.496;10.020;2022-10-31T09:50:36;13.40;99.90
26051;DHT22;13825;53.496;10.020;2022-10-31T09:56:42;13.40;99.90
26051;DHT22;13825;53.496;10.020;2022-10-31T09:59:24;13.40;99.90
26051;DHT22;13825;53.496;10.020;2022-10-31T10:02:04;13.50;99.90
26051;DHT22;13825;53.496;10.020;2022-10-31T10:05:02;13.40;99.90
26051;DHT22;13825;53.496;10.020;2022-10-31T10:07:49;13.40;99.90
26051;DHT22;13825;53.496;10.020;2022-10-31T10:10:57;13.50;99.90
26051;DHT22;13825;53.496;10.020;2022-10-31T10:17:29;13.60;99.90
26051;DHT22;13825;53.496;10.020;2022-10-31T10:20:24;13.70;99.90
26051;DHT22;13825;53.496;10.020;2022-10-31T10:26:01;13.80;99.90
26051;DHT22;13825;53.496;10.020;2022-10-31T10:28:35;13.80;99.90
26051;DHT22;13825;53.496;10.020;2022-10-31T10:31:09;13.80;99.90
26051;DHT22;13825;53.496;10.020;2022-10-31T10:33:59;13.80;99.90
26051;DHT22;13825;53.496;10.020;2022-10-31T10:36:35;13.80;99.90
26051;DHT22;13825;53.496;10.020;2022-10-31T10:39:17;13.80;99.90
26051;DHT22;13825;53.496;10.020;2022-10-31T10:41:49;13.80;99.90
26051;DHT22;13825;53.496;10.020;2022-10-31T10:44:38;13.70;99.90
26051;DHT22;13825;53.496;10.020;2022-10-31T10:47:36;13.80;99.90
26051;DHT22;13825;53.496;10.020;2022-10-31T10:50:16;13.80;99.90
26051;DHT22;13825;53.496;10.020;2022-10-31T10:52:56;13.80;99.90
26051;DHT22;13825;53.496;10.020;2022-10-31T10:55:39;13.70;99.90
26051;DHT22;13825;53.496;10.020;2022-10-31T10:58:20;13.70;99.90
26051;DHT22;13825;53.496;10.020;2022-10-31T11:01:11;13.70;99.90
26051;DHT22;13825;53.496;10.020;2022-10-31T11:04:04;13.80;99.90
26051;DHT22;13825;53.496;10.020;2022-10-31T11:06:38;13.80;99.90
26051;DHT22;13825;53.496;10.020;2022-10-31T11:09:09;13.80;99.90
26051;DHT22;13825;53.496;10.020;2022-10-31T11:11:40;13.80;99.90
26051;DHT22;13825;53.496;10.020;2022-10-31T11:14:13;13.70;99.90
26051;DHT22;13825;53.496;10.020;2022-10-31T11:16:43;13.70;99.90
26051;DHT22;13825;53.496;10.020;2022-10-31T11:19:28;13.70;99.90
26051;DHT22;13825;53.496;10.020;2022-10-31T11:22:06;13.80;99.90
26051;DHT22;13825;53.496;10.020;2022-10-31T11:24:40;13.80;99.90
26051;DHT22;13825;53.496;10.020;2022-10-31T11:27:20;13.90;99.90
26051;DHT22;13825;53.496;10.020;2022-10-31T11:29:50;13.90;99.90
26051;DHT22;13825;53.496;10.020;2022-10-31T11:32:26;13.90;99.90
26051;DHT22;13825;53.496;10.020;2022-10-31T11:35:02;13.90;99.90
26051;DHT22;13825;53.496;10.020;2022-10-31T11:37:33;13.90;99.90
26051;DHT22;13825;53.496;10.020;2022-10-31T11:40:05;14.00;99.90
26051;DHT22;13825;53.496;10.020;2022-10-31T11:42:41;14.10;99.90
26051;DHT22;13825;53.496;10.020;2022-10-31T11:45:28;14.00;99.90
26051;DHT22;13825;53.496;10.020;2022-10-31T11:47:57;14.10;99.90
26051;DHT22;13825;53.496;10.020;2022-10-31T11:50:29;14.20;99.90
26051;DHT22;13825;53.496;10.020;2022-10-31T11:53:16;14.20;99.90
26051;DHT22;13825;53.496;10.020;2022-10-31T11:55:45;14.20;99.90
26051;DHT22;13825;53.496;10.020;2022-10-31T11:58:26;14.30;99.90
26051;DHT22;13825;53.496;10.020;2022-10-31T12:00:56;14.40;99.90
26051;DHT22;13825;53.496;10.020;2022-10-31T12:03:42;14.50;99.90
26051;DHT22;13825;53.496;10.020;2022-10-31T12:06:13;14.60;99.90
26051;DHT22;13825;53.496;10.020;2022-10-31T12:08:43;14.60;99.90
26051;DHT22;13825;53.496;10.020;2022-10-31T12:11:23;14.70;99.90
26051;DHT22;13825;53.496;10.020;2022-10-31T12:14:07;14.80;99.90
26051;DHT22;13825;53.496;10.020;2022-10-31T12:16:39;14.80;99.90
26051;DHT22;13825;53.496;10.020;2022-10-31T12:19:18;14.90;99.90
26051;DHT22;13825;53.496;10.020;2022-10-31T12:22:00;14.90;99.90
26051;DHT22;13825;53.496;10.020;2022-10-31T12:24:56;14.90;99.90
26051;DHT22;13825;53.496;10.020;2022-10-31T12:27:35;14.80;99.90
26051;DHT22;13825;53.496;10.020;2022-10-31T12:30:20;14.80;99.90
26051;DHT22;13825;53.496;10.020;2022-10-31T12:33:02;14.80;99.90
26051;DHT22;13825;53.496;10.020;2022-10-31T12:35:42;14.90;99.90
26051;DHT22;13825;53.496;10.020;2022-10-31T12:38:50;15.00;99.90
26051;DHT22;13825;53.496;10.020;2022-10-31T12:41:36;15.10;99.90
26051;DHT22;13825;53.496;10.020;2022-10-31T12:44:14;15.20;99.90
26051;DHT22;13825;53.496;10.020;2022-10-31T12:47:01;15.30;99.90
26051;DHT22;13825;53.496;10.020;2022-10-31T12:49:41;15.30;99.90
26051;DHT22;13825;53.496;10.020;2022-10-31T12:52:34;15.30;99.90
26051;DHT22;13825;53.496;10.020;2022-10-31T12:55:21;15.30;99.90
26051;DHT22;13825;53.496;10.020;2022-10-31T12:57:54;15.40;99.90
26051;DHT22;13825;53.496;10.020;2022-10-31T13:00:24;15.70;99.90
26051;DHT22;13825;53.496;10.020;2022-10-31T13:02:56;15.90;99.90
26051;DHT22;13825;53.496;10.020;2022-10-31T13:05:27;16.10;99.90
26051;DHT22;13825;53.496;10.020;2022-10-31T13:07:57;16.00;99.90
26051;DHT22;13825;53.496;10.020;2022-10-31T13:10:29;16.10;99.90
26051;DHT22;13825;53.496;10.020;2022-10-31T13:13:04;16.10;99.90
26051;DHT22;13825;53.496;10.020;2022-10-31T13:15:35;16.10;99.90
26051;DHT22;13825;53.496;10.020;2022-10-31T13:18:12;15.70;99.90
26051;DHT22;13825;53.496;10.020;2022-10-31T13:20:43;15.60;99.90
26051;DHT22;13825;53.496;10.020;2022-10-31T13:23:17;15.40;99.90
26051;DHT22;13825;53.496;10.020;2022-10-31T13:25:50;15.30;99.90
26051;DHT22;13825;53.496;10.020;2022-10-31T13:28:26;15.20;99.90
26051;DHT22;13825;53.496;10.020;2022-10-31T13:30:56;15.10;99.90
26051;DHT22;13825;53.496;10.020;2022-10-31T13:33:26;15.50;99.90
26051;DHT22;13825;53.496;10.020;2022-10-31T13:36:10;15.70;99.90
26051;DHT22;13825;53.496;10.020;2022-10-31T13:38:48;15.90;99.90
26051;DHT22;13825;53.496;10.020;2022-10-31T13:41:27;16.20;99.90
26051;DHT22;13825;53.496;10.020;2022-10-31T13:44:00;16.40;99.90
26051;DHT22;13825;53.496;10.020;2022-10-31T13:46:36;16.50;99.90
26051;DHT22;13825;53.496;10.020;2022-10-31T13:49:23;16.40;99.90
26051;DHT22;13825;53.496;10.020;2022-10-31T13:51:50;16.50;99.90
26051;DHT22;13825;53.496;10.020;2022-10-31T13:54:21;16.50;99.90
26051;DHT22;13825;53.496;10.020;2022-10-31T13:56:52;16.30;99.90
26051;DHT22;13825;53.496;10.020;2022-10-31T13:59:22;15.90;99.90
26051;DHT22;13825;53.496;10.020;2022-10-31T14:01:52;15.50;99.90
26051;DHT22;13825;53.496;10.020;2022-10-31T14:04:23;15.30;99.90
26051;DHT22;13825;53.496;10.020;2022-10-31T14:06:58;15.30;99.90
26051;DHT22;13825;53.496;10.020;2022-10-31T14:09:34;15.40;99.90
26051;DHT22;13825;53.496;10.020;2022-10-31T14:12:06;15.60;99.90
26051;DHT22;13825;53.496;10.020;2022-10-31T14:14:46;15.40;99.90
26051;DHT22;13825;53.496;10.020;2022-10-31T14:17:23;15.50;99.90
26051;DHT22;13825;53.496;10.020;2022-10-31T14:20:25;15.40;99.90
26051;DHT22;13825;53.496;10.020;2022-10-31T14:22:52;15.20;99.90
26051;DHT22;13825;53.496;10.020;2022-10-31T14:25:27;15.20;99.90
26051;DHT22;13825;53.496;10.020;2022-10-31T14:27:56;15.30;99.90
26051;DHT22;13825;53.496;10.020;2022-10-31T14:30:25;15.30;99.90
26051;DHT22;13825;53.496;10.020;2022-10-31T14:32:56;15.30;99.90
26051;DHT22;13825;53.496;10.020;2022-10-31T14:35:33;15.20;99.90
26051;DHT22;13825;53.496;10.020;2022-10-31T14:38:18;15.10;99.90
26051;DHT22;13825;53.496;10.020;2022-10-31T14:40:58;14.90;99.90
26051;DHT22;13825;53.496;10.020;2022-10-31T14:43:50;14.70;99.90
26051;DHT22;13825;53.496;10.020;2022-10-31T14:46:31;14.50;99.90
26051;DHT22;13825;53.496;10.020;2022-10-31T14:49:17;14.50;99.90
26051;DHT22;13825;53.496;10.020;2022-10-31T14:51:50;14.30;99.90
26051;DHT22;13825;53.496;10.020;2022-10-31T14:54:22;14.30;99.90
26051;DHT22;13825;53.496;10.020;2022-10-31T14:56:53;14.20;99.90
26051;DHT22;13825;53.496;10.020;2022-10-31T14:59:23;14.00;99.90
26051;DHT22;13825;53.496;10.020;2022-10-31T15:01:56;14.00;99.90
26051;DHT22;13825;53.496;10.020;2022-10-31T15:04:25;13.10;99.90
26051;DHT22;13825;53.496;10.020;2022-10-31T15:07:00;13.80;99.90
26051;DHT22;13825;53.496;10.020;2022-10-31T15:09:30;13.80;99.90
26051;DHT22;13825;53.496;10.020;2022-10-31T15:12:16;13.70;99.90
26051;DHT22;13825;53.496;10.020;2022-10-31T15:14:43;13.70;99.90
26051;DHT22;13825;53.496;10.020;2022-10-31T15:17:10;13.60;99.90
26051;DHT22;13825;53.496;10.020;2022-10-31T15:19:38;13.50;99.90
26051;DHT22;13825;53.496;10.020;2022-10-31T15:22:12;13.40;99.90
26051;DHT22;13825;53.496;10.020;2022-10-31T15:24:42;13.30;99.90
26051;DHT22;13825;53.496;10.020;2022-10-31T15:27:12;13.20;99.90
26051;DHT22;13825;53.496;10.020;2022-10-31T15:29:50;13.20;99.90
26051;DHT22;13825;53.496;10.020;2022-10-31T15:32:20;13.10;99.90
26051;DHT22;13825;53.496;10.020;2022-10-31T15:34:50;13.10;99.90
26051;DHT22;13825;53.496;10.020;2022-10-31T15:37:21;13.00;99.90
26051;DHT22;13825;53.496;10.020;2022-10-31T15:39:50;12.90;99.90
26051;DHT22;13825;53.496;10.020;2022-10-31T15:42:21;12.90;99.90
26051;DHT22;13825;53.496;10.020;2022-10-31T15:44:52;12.80;99.90
26051;DHT22;13825;53.496;10.020;2022-10-31T15:47:35;12.80;99.90
26051;DHT22;13825;53.496;10.020;2022-10-31T15:50:17;12.80;99.90
26051;DHT22;13825;53.496;10.020;2022-10-31T15:52:53;12.70;99.90
26051;DHT22;13825;53.496;10.020;2022-10-31T15:55:29;12.70;99.90
26051;DHT22;13825;53.496;10.020;2022-10-31T15:58:01;12.60;99.90
26051;DHT22;13825;53.496;10.020;2022-10-31T16:00:33;12.50;99.90
26051;DHT22;13825;53.496;10.020;2022-10-31T16:03:04;12.50;99.90
26051;DHT22;13825;53.496;10.020;2022-10-31T16:05:36;12.50;99.90
26051;DHT22;13825;53.496;10.020;2022-10-31T16:08:04;12.50;99.90
26051;DHT22;13825;53.496;10.020;2022-10-31T16:10:34;12.50;99.90
26051;DHT22;13825;53.496;10.020;2022-10-31T16:13:15;12.40;99.90
26051;DHT22;13825;53.496;10.020;2022-10-31T16:15:54;12.50;99.90
26051;DHT22;13825;53.496;10.020;2022-10-31T16:18:24;12.40;99.90
26051;DHT22;13825;53.496;10.020;2022-10-31T16:20:53;12.50;99.90
26051;DHT22;13825;53.496;10.020;2022-10-31T16:23:27;12.50;99.90
26051;DHT22;13825;53.496;10.020;2022-10-31T16:25:55;12.50;99.90
26051;DHT22;13825;53.496;10.020;2022-10-31T16:28:24;12.50;99.90
26051;DHT22;13825;53.496;10.020;2022-10-31T16:30:53;12.50;99.90
26051;DHT22;13825;53.496;10.020;2022-10-31T16:33:26;12.50;99.90